Terminal Aerodrome Forecast
Issued by NWS Houston/Galveston, TX

Home | Current Version | Previous Version | Text Only | Print | Product List | Glossary On
Versions: 1 2 3 4 5 6 7 8 9 10 11 12 13 14 15 16 17 18 19
000
FTUS44 KHGX 311120
TAFGLS
TAF
KGLS 311120Z 3112/0112 36005KT P6SM BKN060
     FM311400 36010KT P6SM FEW080 SCT250
     FM311600 36015G24KT P6SM SKC=

USA.gov is the U.S. government's official web portal to all federal, state and local government web resources and services.